Bradford Regional Airport Bradford US
ICAO: KBFD
IATA: BFD
Category: Medium
Scheduled Services: Yes

Elevation: 2143 ft
TransAlt. 18000 ft.

Airport Communications:
ASOS:133.825
CLEVELAND CNTR:124.325
ALTOONA RDO:122.2
CTAF/UNICOM:123.075

KBFD Zoom In..

If you have problems with the map follow the link
https://www.worldairports.se/pages/airport.php?
ICAO=KBFD

Runways:

(A) RW 05 length 4499 ft width 100 ft
---- / hdg 55

(B) RW 14 length 6306 ft width 150 ft
---- / hdg 145

(C) RW 23 length 4499 ft width 100 ft
---- / hdg 235

(D) RW 32 length 6306 ft width 150 ft
ILS 108.30 / hdg 325

Location; KBFD
Day. 18 / Time. 06.53 Zulu
* Altimeter: 30.26
* Temperature: 01° c. 33.8°f.
* Wind from: 310° Speed 14 kn with Gusts up to 20 kn.
Dewpoint: -01° c.
Visibility: 10 Statute Miles.
Clouds: Broken 1700 ft.
Clouds: Broken 2700 ft.
Clouds: Overcast 6000 ft.
Conditions: Light Snow.

KBFD 180653Z AUTO 31014G20KT 10SM -SN BKN017 BKN027 OVC060 01/M01 A3026 RMK AO2 PK WND 33031/0608 SNB10 SLP260 P0000 T00061011


Wind From 310°
Speed 14 kn.

 
 
jpsmedia.com for Web Design worldairports.se 2018   terms of use